首页
METAR-TAF:

METAR-TAF

机场 :

Adirondack Regional Airport

Saranac Lake, 紐約州, 美国

纬度: 44-23-35N, 经度: 074-12-10W, 海拔: 507米

当前天气观测

该预报发布于33分钟前的02:51 UTC
静风
温度 10°C
湿度 93%
气压 1013 hPa
能見度: 16.1公里
阴天层高于3500英尺

METAR: KSLK 170251Z AUTO 00000KT 10SM OVC035 10/09 A2991 RMK AO2 SLP127 T01000089 52009

时间: 23:24 (03:24 UTC)

预报

该预报发布于3小时和48分钟前的23:36 UTC
预报有效从17日的 00点(UTC)到 17日的 24点(UTC)
风速4节,风向多变
能見度: 10公里
散云层高于25000英尺
从 17日的 0500点(UTC)
风速节,风向
能見度: 3.2公里
散云层高于300英尺
轻雾
从 17日的 0800点(UTC)
风速节,风向
能見度: 0.8公里
多云层高于200英尺
从 17日的 1200点(UTC)
风速4节,风向西转西南
能見度: 10公里
散云层高于25000英尺

TAF: KSLK 162336Z 1700/1724 VRB04KT P6SM SCT250 FM170500 00000KT 2SM BR SCT003 FM170800 00000KT 1/2SM FG BKN002 FM171200 25004KT P6SM SCT250

超过4000个机场的气象观测和天气预报(METAR&TAF报告)。

可查询的气象台以黄色和红色小点在地图上表示。

将鼠标移到小点上方,可查看气象台名称。

然后点击查看天气观测和预报。

如需切换地图:点击带黑十字的绿色按钮放大地图;点击带横线的绿色按钮缩小地图;或者点击绿色箭头查看邻近地区的地图。


METAR-TAF: